sensor_id;sensor_type;location;lat;lon;timestamp;temperature;humidity
6903;DHT22;20232;49.408;8.702;2023-05-07T04:07:32;13.40;99.90
6903;DHT22;20232;49.408;8.702;2023-05-07T04:09:57;13.30;99.90
6903;DHT22;20232;49.408;8.702;2023-05-07T04:12:23;13.30;99.90
6903;DHT22;20232;49.408;8.702;2023-05-07T04:14:48;13.40;99.90
6903;DHT22;20232;49.408;8.702;2023-05-07T04:17:14;13.40;99.90
6903;DHT22;20232;49.408;8.702;2023-05-07T04:19:39;13.40;99.90
6903;DHT22;20232;49.408;8.702;2023-05-07T04:22:10;13.50;99.90
6903;DHT22;20232;49.408;8.702;2023-05-07T04:24:36;13.50;99.90
6903;DHT22;20232;49.408;8.702;2023-05-07T04:27:01;13.50;99.90
6903;DHT22;20232;49.408;8.702;2023-05-07T04:29:27;13.50;99.90
6903;DHT22;20232;49.408;8.702;2023-05-07T04:31:53;13.50;99.90
6903;DHT22;20232;49.408;8.702;2023-05-07T04:34:21;13.50;99.90
6903;DHT22;20232;49.408;8.702;2023-05-07T04:36:46;13.60;99.90
6903;DHT22;20232;49.408;8.702;2023-05-07T04:39:13;13.60;99.90
6903;DHT22;20232;49.408;8.702;2023-05-07T04:41:38;13.70;99.90
6903;DHT22;20232;49.408;8.702;2023-05-07T04:44:04;13.80;99.90
6903;DHT22;20232;49.408;8.702;2023-05-07T04:46:30;13.80;99.90
6903;DHT22;20232;49.408;8.702;2023-05-07T04:48:56;13.80;99.90
6903;DHT22;20232;49.408;8.702;2023-05-07T04:51:21;13.90;99.90
6903;DHT22;20232;49.408;8.702;2023-05-07T04:53:48;13.90;99.90
6903;DHT22;20232;49.408;8.702;2023-05-07T04:56:13;13.90;99.90
6903;DHT22;20232;49.408;8.702;2023-05-07T04:58:39;14.00;99.90
6903;DHT22;20232;49.408;8.702;2023-05-07T05:01:05;14.10;99.90
6903;DHT22;20232;49.408;8.702;2023-05-07T05:03:31;14.10;99.90
6903;DHT22;20232;49.408;8.702;2023-05-07T05:05:56;14.20;99.90
6903;DHT22;20232;49.408;8.702;2023-05-07T05:08:24;14.20;99.90
6903;DHT22;20232;49.408;8.702;2023-05-07T05:10:50;14.30;99.90
6903;DHT22;20232;49.408;8.702;2023-05-07T05:13:16;14.30;99.90
6903;DHT22;20232;49.408;8.702;2023-05-07T05:15:41;14.40;99.90
6903;DHT22;20232;49.408;8.702;2023-05-07T05:18:07;14.40;99.90
6903;DHT22;20232;49.408;8.702;2023-05-07T05:20:32;14.40;99.90
6903;DHT22;20232;49.408;8.702;2023-05-07T05:22:58;14.40;99.90
6903;DHT22;20232;49.408;8.702;2023-05-07T05:25:24;14.50;99.90
6903;DHT22;20232;49.408;8.702;2023-05-07T05:27:49;14.60;99.90
6903;DHT22;20232;49.408;8.702;2023-05-07T05:30:15;14.60;99.90
6903;DHT22;20232;49.408;8.702;2023-05-07T05:32:40;14.60;99.90
6903;DHT22;20232;49.408;8.702;2023-05-07T05:35:06;14.70;99.90
6903;DHT22;20232;49.408;8.702;2023-05-07T05:37:32;14.70;99.90
6903;DHT22;20232;49.408;8.702;2023-05-07T05:39:57;14.80;99.90
6903;DHT22;20232;49.408;8.702;2023-05-07T05:42:23;15.00;99.90
6903;DHT22;20232;49.408;8.702;2023-05-07T05:44:49;15.10;99.90
6903;DHT22;20232;49.408;8.702;2023-05-07T05:47:14;15.10;99.90
6903;DHT22;20232;49.408;8.702;2023-05-07T05:49:40;15.10;99.90
6903;DHT22;20232;49.408;8.702;2023-05-07T05:52:05;15.20;99.90
6903;DHT22;20232;49.408;8.702;2023-05-07T05:54:31;15.30;99.90
6903;DHT22;20232;49.408;8.702;2023-05-07T05:56:57;15.40;99.90
6903;DHT22;20232;49.408;8.702;2023-05-07T05:59:23;15.40;99.90
6903;DHT22;20232;49.408;8.702;2023-05-07T06:01:48;15.70;99.90
6903;DHT22;20232;49.408;8.702;2023-05-07T06:04:14;15.70;99.90
6903;DHT22;20232;49.408;8.702;2023-05-07T06:06:40;15.70;99.90
6903;DHT22;20232;49.408;8.702;2023-05-07T06:09:05;15.80;99.90
6903;DHT22;20232;49.408;8.702;2023-05-07T06:11:31;15.80;99.90
6903;DHT22;20232;49.408;8.702;2023-05-07T06:13:57;15.90;99.90
6903;DHT22;20232;49.408;8.702;2023-05-07T06:16:24;16.00;99.90
6903;DHT22;20232;49.408;8.702;2023-05-07T06:18:50;16.20;99.90
6903;DHT22;20232;49.408;8.702;2023-05-07T06:21:16;16.30;99.90
6903;DHT22;20232;49.408;8.702;2023-05-07T06:23:41;16.40;99.90
6903;DHT22;20232;49.408;8.702;2023-05-07T06:26:07;16.50;99.90
6903;DHT22;20232;49.408;8.702;2023-05-07T06:28:33;16.70;99.90
6903;DHT22;20232;49.408;8.702;2023-05-07T06:31:15;16.70;99.90
6903;DHT22;20232;49.408;8.702;2023-05-07T06:33:43;16.90;99.90
6903;DHT22;20232;49.408;8.702;2023-05-07T06:36:09;17.00;99.90
6903;DHT22;20232;49.408;8.702;2023-05-07T06:38:34;17.10;99.90
6903;DHT22;20232;49.408;8.702;2023-05-07T06:41:00;17.20;99.90
6903;DHT22;20232;49.408;8.702;2023-05-07T06:43:25;17.40;99.90
6903;DHT22;20232;49.408;8.702;2023-05-07T06:45:51;17.60;99.90
6903;DHT22;20232;49.408;8.702;2023-05-07T06:48:16;17.80;99.90
6903;DHT22;20232;49.408;8.702;2023-05-07T06:50:42;18.00;99.90
6903;DHT22;20232;49.408;8.702;2023-05-07T06:53:07;18.10;99.90
6903;DHT22;20232;49.408;8.702;2023-05-07T06:55:33;18.20;99.90
6903;DHT22;20232;49.408;8.702;2023-05-07T06:57:59;18.30;99.90
6903;DHT22;20232;49.408;8.702;2023-05-07T07:00:26;18.60;99.90
6903;DHT22;20232;49.408;8.702;2023-05-07T07:02:53;19.10;99.90
6903;DHT22;20232;49.408;8.702;2023-05-07T07:05:18;19.40;99.90
6903;DHT22;20232;49.408;8.702;2023-05-07T07:07:44;19.70;99.90
6903;DHT22;20232;49.408;8.702;2023-05-07T07:10:10;19.70;99.90
6903;DHT22;20232;49.408;8.702;2023-05-07T07:12:35;19.80;99.90
6903;DHT22;20232;49.408;8.702;2023-05-07T07:15:01;19.90;99.90
6903;DHT22;20232;49.408;8.702;2023-05-07T07:17:27;19.90;99.90
6903;DHT22;20232;49.408;8.702;2023-05-07T07:19:53;19.90;99.90
6903;DHT22;20232;49.408;8.702;2023-05-07T07:22:19;19.80;99.90
6903;DHT22;20232;49.408;8.702;2023-05-07T07:24:44;19.70;99.90
6903;DHT22;20232;49.408;8.702;2023-05-07T07:27:10;19.90;99.90
6903;DHT22;20232;49.408;8.702;2023-05-07T07:29:36;20.20;99.90
6903;DHT22;20232;49.408;8.702;2023-05-07T07:32:01;20.60;99.90
6903;DHT22;20232;49.408;8.702;2023-05-07T07:34:27;20.80;99.90
6903;DHT22;20232;49.408;8.702;2023-05-07T07:36:52;21.20;99.90
6903;DHT22;20232;49.408;8.702;2023-05-07T07:39:18;21.80;99.90
6903;DHT22;20232;49.408;8.702;2023-05-07T07:41:43;21.80;99.90
6903;DHT22;20232;49.408;8.702;2023-05-07T07:44:09;21.60;99.90
6903;DHT22;20232;49.408;8.702;2023-05-07T07:46:38;21.30;99.90
6903;DHT22;20232;49.408;8.702;2023-05-07T07:49:03;21.10;99.90
6903;DHT22;20232;49.408;8.702;2023-05-07T07:51:29;21.10;99.90
6903;DHT22;20232;49.408;8.702;2023-05-07T07:53:55;21.10;99.90
6903;DHT22;20232;49.408;8.702;2023-05-07T07:56:23;21.10;99.90
6903;DHT22;20232;49.408;8.702;2023-05-07T07:58:48;21.20;99.90
6903;DHT22;20232;49.408;8.702;2023-05-07T08:01:14;21.50;99.90
6903;DHT22;20232;49.408;8.702;2023-05-07T08:03:40;22.30;99.90
6903;DHT22;20232;49.408;8.702;2023-05-07T08:06:06;22.90;99.90
6903;DHT22;20232;49.408;8.702;2023-05-07T08:08:31;23.10;99.90
6903;DHT22;20232;49.408;8.702;2023-05-07T08:10:57;23.10;99.90
6903;DHT22;20232;49.408;8.702;2023-05-07T08:13:22;23.30;99.90
6903;DHT22;20232;49.408;8.702;2023-05-07T08:15:48;23.20;99.90
6903;DHT22;20232;49.408;8.702;2023-05-07T08:18:13;23.10;99.90
6903;DHT22;20232;49.408;8.702;2023-05-07T08:20:39;22.90;99.90
6903;DHT22;20232;49.408;8.702;2023-05-07T08:23:05;23.10;99.90
6903;DHT22;20232;49.408;8.702;2023-05-07T08:25:33;23.60;99.90
6903;DHT22;20232;49.408;8.702;2023-05-07T08:28:00;24.30;99.90
6903;DHT22;20232;49.408;8.702;2023-05-07T08:30:25;25.30;99.50
6903;DHT22;20232;49.408;8.702;2023-05-07T08:32:51;25.70;95.60
6903;DHT22;20232;49.408;8.702;2023-05-07T08:35:16;25.30;97.60
6903;DHT22;20232;49.408;8.702;2023-05-07T08:37:42;24.70;98.80
6903;DHT22;20232;49.408;8.702;2023-05-07T08:40:08;24.30;99.50
6903;DHT22;20232;49.408;8.702;2023-05-07T08:42:35;23.90;99.90
6903;DHT22;20232;49.408;8.702;2023-05-07T08:45:08;23.80;99.90
6903;DHT22;20232;49.408;8.702;2023-05-07T08:47:49;24.00;99.90
6903;DHT22;20232;49.408;8.702;2023-05-07T08:50:16;24.00;99.90
6903;DHT22;20232;49.408;8.702;2023-05-07T08:52:42;23.90;99.90
6903;DHT22;20232;49.408;8.702;2023-05-07T08:55:08;23.70;99.90
6903;DHT22;20232;49.408;8.702;2023-05-07T08:57:34;23.60;99.90
6903;DHT22;20232;49.408;8.702;2023-05-07T09:00:00;23.30;99.90
6903;DHT22;20232;49.408;8.702;2023-05-07T09:02:25;23.20;99.90
6903;DHT22;20232;49.408;8.702;2023-05-07T09:04:51;22.90;99.90
6903;DHT22;20232;49.408;8.702;2023-05-07T09:07:19;22.70;99.90
6903;DHT22;20232;49.408;8.702;2023-05-07T09:09:45;22.60;99.90
6903;DHT22;20232;49.408;8.702;2023-05-07T09:12:11;22.60;99.90
6903;DHT22;20232;49.408;8.702;2023-05-07T09:14:37;23.00;99.90
6903;DHT22;20232;49.408;8.702;2023-05-07T09:17:03;24.00;99.90
6903;DHT22;20232;49.408;8.702;2023-05-07T09:19:28;25.30;98.50
6903;DHT22;20232;49.408;8.702;2023-05-07T09:22:03;26.20;96.00
6903;DHT22;20232;49.408;8.702;2023-05-07T09:24:29;26.80;95.60
6903;DHT22;20232;49.408;8.702;2023-05-07T09:26:59;27.20;94.30
6903;DHT22;20232;49.408;8.702;2023-05-07T09:29:25;27.40;93.20
6903;DHT22;20232;49.408;8.702;2023-05-07T09:31:51;27.30;92.30
6903;DHT22;20232;49.408;8.702;2023-05-07T09:34:16;26.90;93.80
6903;DHT22;20232;49.408;8.702;2023-05-07T09:36:42;27.00;92.70
6903;DHT22;20232;49.408;8.702;2023-05-07T09:39:08;26.90;91.90
6903;DHT22;20232;49.408;8.702;2023-05-07T09:41:43;26.80;91.60
6903;DHT22;20232;49.408;8.702;2023-05-07T09:44:09;26.70;91.20
6903;DHT22;20232;49.408;8.702;2023-05-07T09:46:36;26.60;91.30
6903;DHT22;20232;49.408;8.702;2023-05-07T09:49:07;26.60;91.40
6903;DHT22;20232;49.408;8.702;2023-05-07T09:51:41;26.60;91.00
6903;DHT22;20232;49.408;8.702;2023-05-07T09:54:09;26.70;92.10
6903;DHT22;20232;49.408;8.702;2023-05-07T09:56:35;27.20;91.50
6903;DHT22;20232;49.408;8.702;2023-05-07T09:59:03;27.70;90.70
6903;DHT22;20232;49.408;8.702;2023-05-07T10:01:30;28.50;87.60
6903;DHT22;20232;49.408;8.702;2023-05-07T10:03:57;28.90;83.00
6903;DHT22;20232;49.408;8.702;2023-05-07T10:06:24;29.40;84.60
6903;DHT22;20232;49.408;8.702;2023-05-07T10:08:52;30.00;79.70
6903;DHT22;20232;49.408;8.702;2023-05-07T10:11:18;30.50;79.00
6903;DHT22;20232;49.408;8.702;2023-05-07T10:13:46;31.10;75.70
6903;DHT22;20232;49.408;8.702;2023-05-07T10:16:13;31.40;74.50
6903;DHT22;20232;49.408;8.702;2023-05-07T10:18:41;32.00;72.20
6903;DHT22;20232;49.408;8.702;2023-05-07T10:21:20;31.80;70.70
6903;DHT22;20232;49.408;8.702;2023-05-07T10:23:51;31.80;71.50
6903;DHT22;20232;49.408;8.702;2023-05-07T10:26:20;31.80;67.80
6903;DHT22;20232;49.408;8.702;2023-05-07T10:28:58;31.50;68.00
6903;DHT22;20232;49.408;8.702;2023-05-07T10:34:12;31.70;71.00
6903;DHT22;20232;49.408;8.702;2023-05-07T10:36:39;31.70;72.50
6903;DHT22;20232;49.408;8.702;2023-05-07T10:39:05;31.70;72.30
6903;DHT22;20232;49.408;8.702;2023-05-07T10:41:31;31.30;71.00
6903;DHT22;20232;49.408;8.702;2023-05-07T10:43:57;30.90;73.50
6903;DHT22;20232;49.408;8.702;2023-05-07T10:46:26;30.80;71.40
6903;DHT22;20232;49.408;8.702;2023-05-07T10:51:30;31.40;66.50
6903;DHT22;20232;49.408;8.702;2023-05-07T10:56:36;32.20;62.70
6903;DHT22;20232;49.408;8.702;2023-05-07T11:01:55;32.60;60.60
6903;DHT22;20232;49.408;8.702;2023-05-07T11:04:23;31.60;60.20
6903;DHT22;20232;49.408;8.702;2023-05-07T11:15:10;29.50;65.20
6903;DHT22;20232;49.408;8.702;2023-05-07T11:17:56;29.30;65.10
6903;DHT22;20232;49.408;8.702;2023-05-07T11:20:44;28.70;66.30
6903;DHT22;20232;49.408;8.702;2023-05-07T11:26:06;28.70;65.90
6903;DHT22;20232;49.408;8.702;2023-05-07T11:28:37;28.20;66.10
6903;DHT22;20232;49.408;8.702;2023-05-07T11:31:03;28.00;66.60
6903;DHT22;20232;49.408;8.702;2023-05-07T11:33:30;27.70;66.40
6903;DHT22;20232;49.408;8.702;2023-05-07T11:35:56;27.00;66.50
6903;DHT22;20232;49.408;8.702;2023-05-07T11:38:22;26.60;67.80
6903;DHT22;20232;49.408;8.702;2023-05-07T11:40:55;26.30;67.70
6903;DHT22;20232;49.408;8.702;2023-05-07T11:43:21;25.90;68.40
6903;DHT22;20232;49.408;8.702;2023-05-07T11:45:48;25.70;69.30
6903;DHT22;20232;49.408;8.702;2023-05-07T11:48:15;25.80;69.60
6903;DHT22;20232;49.408;8.702;2023-05-07T11:51:05;26.10;69.30
6903;DHT22;20232;49.408;8.702;2023-05-07T11:53:41;26.50;69.00
6903;DHT22;20232;49.408;8.702;2023-05-07T11:58:33;26.60;69.40
6903;DHT22;20232;49.408;8.702;2023-05-07T12:00:59;26.50;70.40
6903;DHT22;20232;49.408;8.702;2023-05-07T12:03:24;26.40;72.10
6903;DHT22;20232;49.408;8.702;2023-05-07T12:05:50;26.60;73.50
6903;DHT22;20232;49.408;8.702;2023-05-07T12:08:17;27.30;71.80
6903;DHT22;20232;49.408;8.702;2023-05-07T12:10:43;28.10;70.60
6903;DHT22;20232;49.408;8.702;2023-05-07T12:13:19;28.50;68.50
6903;DHT22;20232;49.408;8.702;2023-05-07T12:15:45;28.70;68.00
6903;DHT22;20232;49.408;8.702;2023-05-07T12:18:12;28.60;68.60
6903;DHT22;20232;49.408;8.702;2023-05-07T12:20:38;28.90;68.10
6903;DHT22;20232;49.408;8.702;2023-05-07T12:23:04;28.80;67.60
6903;DHT22;20232;49.408;8.702;2023-05-07T12:25:40;28.20;69.00
6903;DHT22;20232;49.408;8.702;2023-05-07T12:28:13;27.50;70.50
6903;DHT22;20232;49.408;8.702;2023-05-07T12:30:39;27.30;72.30
6903;DHT22;20232;49.408;8.702;2023-05-07T12:33:04;28.00;70.20
6903;DHT22;20232;49.408;8.702;2023-05-07T12:35:32;28.50;70.00
6903;DHT22;20232;49.408;8.702;2023-05-07T12:37:58;29.40;68.30
6903;DHT22;20232;49.408;8.702;2023-05-07T12:40:42;29.90;65.50
6903;DHT22;20232;49.408;8.702;2023-05-07T12:43:14;29.60;65.90
6903;DHT22;20232;49.408;8.702;2023-05-07T12:45:41;29.80;66.70
6903;DHT22;20232;49.408;8.702;2023-05-07T12:48:09;29.10;67.00
6903;DHT22;20232;49.408;8.702;2023-05-07T12:50:35;29.20;67.00
6903;DHT22;20232;49.408;8.702;2023-05-07T12:53:03;28.70;67.70
6903;DHT22;20232;49.408;8.702;2023-05-07T12:55:31;28.30;67.80
6903;DHT22;20232;49.408;8.702;2023-05-07T12:57:57;28.70;69.00
6903;DHT22;20232;49.408;8.702;2023-05-07T13:00:33;29.40;66.90
6903;DHT22;20232;49.408;8.702;2023-05-07T13:02:59;29.80;66.70
6903;DHT22;20232;49.408;8.702;2023-05-07T13:05:24;30.10;65.40
6903;DHT22;20232;49.408;8.702;2023-05-07T13:07:54;30.20;64.90
6903;DHT22;20232;49.408;8.702;2023-05-07T13:10:20;29.90;65.30
6903;DHT22;20232;49.408;8.702;2023-05-07T13:12:45;29.60;64.90
6903;DHT22;20232;49.408;8.702;2023-05-07T13:15:11;29.00;65.90
6903;DHT22;20232;49.408;8.702;2023-05-07T13:17:36;28.50;67.90
6903;DHT22;20232;49.408;8.702;2023-05-07T13:20:02;28.20;68.70
6903;DHT22;20232;49.408;8.702;2023-05-07T13:22:28;27.90;69.10
6903;DHT22;20232;49.408;8.702;2023-05-07T13:24:53;27.60;70.50
6903;DHT22;20232;49.408;8.702;2023-05-07T13:27:19;27.20;70.50
6903;DHT22;20232;49.408;8.702;2023-05-07T13:29:45;26.90;71.80
6903;DHT22;20232;49.408;8.702;2023-05-07T13:32:10;26.30;72.50
6903;DHT22;20232;49.408;8.702;2023-05-07T13:34:36;26.20;73.20
6903;DHT22;20232;49.408;8.702;2023-05-07T13:37:02;26.30;74.50
6903;DHT22;20232;49.408;8.702;2023-05-07T13:39:28;26.40;74.20
6903;DHT22;20232;49.408;8.702;2023-05-07T13:41:53;26.40;73.50
6903;DHT22;20232;49.408;8.702;2023-05-07T13:44:19;26.20;73.70
6903;DHT22;20232;49.408;8.702;2023-05-07T13:46:44;26.20;73.80
6903;DHT22;20232;49.408;8.702;2023-05-07T13:49:10;26.10;74.80
6903;DHT22;20232;49.408;8.702;2023-05-07T13:51:36;25.70;75.30
6903;DHT22;20232;49.408;8.702;2023-05-07T13:54:02;25.50;76.60
6903;DHT22;20232;49.408;8.702;2023-05-07T13:56:28;25.30;77.10
6903;DHT22;20232;49.408;8.702;2023-05-07T13:58:56;25.20;77.70
6903;DHT22;20232;49.408;8.702;2023-05-07T14:01:21;25.20;78.60
6903;DHT22;20232;49.408;8.702;2023-05-07T14:03:47;25.20;83.00
6903;DHT22;20232;49.408;8.702;2023-05-07T14:06:12;25.00;92.20
6903;DHT22;20232;49.408;8.702;2023-05-07T14:08:38;24.50;96.90
6903;DHT22;20232;49.408;8.702;2023-05-07T14:11:04;23.30;99.90
6903;DHT22;20232;49.408;8.702;2023-05-07T14:13:30;21.80;99.90
6903;DHT22;20232;49.408;8.702;2023-05-07T14:15:56;20.70;99.90
6903;DHT22;20232;49.408;8.702;2023-05-07T14:19:07;19.40;99.90
6903;DHT22;20232;49.408;8.702;2023-05-07T14:21:32;19.00;99.90
6903;DHT22;20232;49.408;8.702;2023-05-07T14:23:58;18.50;99.90
6903;DHT22;20232;49.408;8.702;2023-05-07T14:26:25;18.30;99.90
6903;DHT22;20232;49.408;8.702;2023-05-07T14:28:52;18.20;99.90
6903;DHT22;20232;49.408;8.702;2023-05-07T14:31:20;18.20;99.90
6903;DHT22;20232;49.408;8.702;2023-05-07T14:33:46;17.80;99.90
6903;DHT22;20232;49.408;8.702;2023-05-07T14:36:12;17.60;99.90
6903;DHT22;20232;49.408;8.702;2023-05-07T14:38:37;17.50;99.90
6903;DHT22;20232;49.408;8.702;2023-05-07T14:41:03;17.40;99.90
6903;DHT22;20232;49.408;8.702;2023-05-07T14:43:29;17.30;99.90
6903;DHT22;20232;49.408;8.702;2023-05-07T14:45:54;17.20;99.90
6903;DHT22;20232;49.408;8.702;2023-05-07T14:48:20;17.20;99.90
6903;DHT22;20232;49.408;8.702;2023-05-07T14:50:49;17.00;99.90
6903;DHT22;20232;49.408;8.702;2023-05-07T14:53:14;16.90;99.90
6903;DHT22;20232;49.408;8.702;2023-05-07T14:55:40;16.60;99.90
6903;DHT22;20232;49.408;8.702;2023-05-07T14:58:06;16.50;99.90
6903;DHT22;20232;49.408;8.702;2023-05-07T15:00:31;16.40;99.90
6903;DHT22;20232;49.408;8.702;2023-05-07T15:03:08;16.30;99.90
6903;DHT22;20232;49.408;8.702;2023-05-07T15:05:34;16.10;99.90
6903;DHT22;20232;49.408;8.702;2023-05-07T15:08:00;15.80;99.90
6903;DHT22;20232;49.408;8.702;2023-05-07T15:10:26;15.50;99.90
6903;DHT22;20232;49.408;8.702;2023-05-07T15:12:51;15.40;99.90
6903;DHT22;20232;49.408;8.702;2023-05-07T15:15:17;15.50;99.90
6903;DHT22;20232;49.408;8.702;2023-05-07T15:17:42;15.60;99.90
6903;DHT22;20232;49.408;8.702;2023-05-07T15:20:08;15.50;99.90
6903;DHT22;20232;49.408;8.702;2023-05-07T15:22:35;15.40;99.90
6903;DHT22;20232;49.408;8.702;2023-05-07T15:25:03;15.30;99.90
6903;DHT22;20232;49.408;8.702;2023-05-07T15:27:29;15.10;99.90
6903;DHT22;20232;49.408;8.702;2023-05-07T15:29:56;15.00;99.90
6903;DHT22;20232;49.408;8.702;2023-05-07T15:32:21;15.00;99.90
6903;DHT22;20232;49.408;8.702;2023-05-07T15:34:47;15.00;99.90
6903;DHT22;20232;49.408;8.702;2023-05-07T15:37:12;15.00;99.90
6903;DHT22;20232;49.408;8.702;2023-05-07T15:39:38;15.10;99.90
6903;DHT22;20232;49.408;8.702;2023-05-07T15:42:04;15.20;99.90
6903;DHT22;20232;49.408;8.702;2023-05-07T15:44:30;15.30;99.90
6903;DHT22;20232;49.408;8.702;2023-05-07T15:46:58;15.40;99.90
6903;DHT22;20232;49.408;8.702;2023-05-07T15:49:24;15.60;99.90
6903;DHT22;20232;49.408;8.702;2023-05-07T15:51:50;15.40;99.90
6903;DHT22;20232;49.408;8.702;2023-05-07T15:54:16;15.40;99.90
6903;DHT22;20232;49.408;8.702;2023-05-07T15:56:45;15.40;99.90
6903;DHT22;20232;49.408;8.702;2023-05-07T15:59:11;15.30;99.90
6903;DHT22;20232;49.408;8.702;2023-05-07T16:01:37;15.30;99.90
6903;DHT22;20232;49.408;8.702;2023-05-07T16:04:03;15.40;99.90
6903;DHT22;20232;49.408;8.702;2023-05-07T16:06:29;15.40;99.90
6903;DHT22;20232;49.408;8.702;2023-05-07T16:08:55;15.40;99.90
6903;DHT22;20232;49.408;8.702;2023-05-07T16:11:21;15.20;99.90
6903;DHT22;20232;49.408;8.702;2023-05-07T16:13:46;15.10;99.90
6903;DHT22;20232;49.408;8.702;2023-05-07T16:16:12;15.00;99.90
6903;DHT22;20232;49.408;8.702;2023-05-07T16:18:38;15.00;99.90
6903;DHT22;20232;49.408;8.702;2023-05-07T16:21:05;15.00;99.90
6903;DHT22;20232;49.408;8.702;2023-05-07T16:23:30;15.00;99.90
6903;DHT22;20232;49.408;8.702;2023-05-07T16:25:56;15.00;99.90
6903;DHT22;20232;49.408;8.702;2023-05-07T16:28:22;15.10;99.90
6903;DHT22;20232;49.408;8.702;2023-05-07T16:30:48;15.10;99.90
6903;DHT22;20232;49.408;8.702;2023-05-07T16:33:13;15.10;99.90
6903;DHT22;20232;49.408;8.702;2023-05-07T16:35:39;15.10;99.90
6903;DHT22;20232;49.408;8.702;2023-05-07T16:38:04;15.20;99.90
6903;DHT22;20232;49.408;8.702;2023-05-07T16:40:40;15.10;99.90
6903;DHT22;20232;49.408;8.702;2023-05-07T16:43:06;15.10;99.90
6903;DHT22;20232;49.408;8.702;2023-05-07T16:45:31;15.10;99.90
6903;DHT22;20232;49.408;8.702;2023-05-07T16:47:57;15.10;99.90
6903;DHT22;20232;49.408;8.702;2023-05-07T16:50:23;15.10;99.90
6903;DHT22;20232;49.408;8.702;2023-05-07T16:52:48;15.10;99.90
6903;DHT22;20232;49.408;8.702;2023-05-07T16:55:14;15.20;99.90
6903;DHT22;20232;49.408;8.702;2023-05-07T16:57:40;15.20;99.90
6903;DHT22;20232;49.408;8.702;2023-05-07T17:00:06;15.30;99.90
6903;DHT22;20232;49.408;8.702;2023-05-07T17:02:32;15.20;99.90
6903;DHT22;20232;49.408;8.702;2023-05-07T17:04:59;15.20;99.90
6903;DHT22;20232;49.408;8.702;2023-05-07T17:07:25;15.20;99.90
6903;DHT22;20232;49.408;8.702;2023-05-07T17:09:51;15.20;99.90
6903;DHT22;20232;49.408;8.702;2023-05-07T17:12:17;15.20;99.90
6903;DHT22;20232;49.408;8.702;2023-05-07T17:14:43;15.10;99.90
6903;DHT22;20232;49.408;8.702;2023-05-07T17:17:08;15.10;99.90
6903;DHT22;20232;49.408;8.702;2023-05-07T17:19:37;15.10;99.90
6903;DHT22;20232;49.408;8.702;2023-05-07T17:22:02;15.10;99.90
6903;DHT22;20232;49.408;8.702;2023-05-07T17:24:28;15.10;99.90
6903;DHT22;20232;49.408;8.702;2023-05-07T17:26:54;15.00;99.90
6903;DHT22;20232;49.408;8.702;2023-05-07T17:29:20;15.00;99.90
6903;DHT22;20232;49.408;8.702;2023-05-07T17:31:45;14.90;99.90
6903;DHT22;20232;49.408;8.702;2023-05-07T17:34:11;15.00;99.90
6903;DHT22;20232;49.408;8.702;2023-05-07T17:36:37;15.00;99.90
6903;DHT22;20232;49.408;8.702;2023-05-07T17:39:02;14.90;99.90
6903;DHT22;20232;49.408;8.702;2023-05-07T17:41:28;15.00;99.90
6903;DHT22;20232;49.408;8.702;2023-05-07T17:43:54;15.00;99.90
6903;DHT22;20232;49.408;8.702;2023-05-07T17:46:20;15.00;99.90
6903;DHT22;20232;49.408;8.702;2023-05-07T17:48:45;15.10;99.90
6903;DHT22;20232;49.408;8.702;2023-05-07T17:51:11;15.10;99.90
6903;DHT22;20232;49.408;8.702;2023-05-07T17:53:37;15.10;99.90
6903;DHT22;20232;49.408;8.702;2023-05-07T17:56:02;15.10;99.90
6903;DHT22;20232;49.408;8.702;2023-05-07T17:58:28;15.00;99.90
6903;DHT22;20232;49.408;8.702;2023-05-07T18:00:53;15.00;99.90
6903;DHT22;20232;49.408;8.702;2023-05-07T18:03:21;15.00;99.90
6903;DHT22;20232;49.408;8.702;2023-05-07T18:05:49;15.00;99.90
6903;DHT22;20232;49.408;8.702;2023-05-07T18:08:14;15.00;99.90
6903;DHT22;20232;49.408;8.702;2023-05-07T18:10:40;15.00;99.90
6903;DHT22;20232;49.408;8.702;2023-05-07T18:13:05;14.90;99.90
6903;DHT22;20232;49.408;8.702;2023-05-07T18:15:31;14.90;99.90
6903;DHT22;20232;49.408;8.702;2023-05-07T18:17:57;14.80;99.90
6903;DHT22;20232;49.408;8.702;2023-05-07T18:20:22;14.70;99.90
6903;DHT22;20232;49.408;8.702;2023-05-07T18:22:48;14.60;99.90
6903;DHT22;20232;49.408;8.702;2023-05-07T18:25:13;14.50;99.90
6903;DHT22;20232;49.408;8.702;2023-05-07T18:27:39;14.40;99.90
6903;DHT22;20232;49.408;8.702;2023-05-07T18:30:05;14.40;99.90
6903;DHT22;20232;49.408;8.702;2023-05-07T18:32:31;14.40;99.90
6903;DHT22;20232;49.408;8.702;2023-05-07T18:34:56;14.40;99.90
6903;DHT22;20232;49.408;8.702;2023-05-07T18:37:22;14.50;99.90
6903;DHT22;20232;49.408;8.702;2023-05-07T18:39:47;14.60;99.90
6903;DHT22;20232;49.408;8.702;2023-05-07T18:42:13;14.50;99.90
6903;DHT22;20232;49.408;8.702;2023-05-07T18:44:38;14.60;99.90
6903;DHT22;20232;49.408;8.702;2023-05-07T18:47:05;14.60;99.90
6903;DHT22;20232;49.408;8.702;2023-05-07T18:49:34;14.60;99.90
6903;DHT22;20232;49.408;8.702;2023-05-07T18:52:00;14.50;99.90
6903;DHT22;20232;49.408;8.702;2023-05-07T18:54:26;14.50;99.90
6903;DHT22;20232;49.408;8.702;2023-05-07T18:56:51;14.50;99.90
6903;DHT22;20232;49.408;8.702;2023-05-07T18:59:17;14.40;99.90
6903;DHT22;20232;49.408;8.702;2023-05-07T19:01:43;14.40;99.90
6903;DHT22;20232;49.408;8.702;2023-05-07T19:04:09;14.40;99.90
6903;DHT22;20232;49.408;8.702;2023-05-07T19:06:34;14.40;99.90
6903;DHT22;20232;49.408;8.702;2023-05-07T19:09:00;14.40;99.90
6903;DHT22;20232;49.408;8.702;2023-05-07T19:11:26;14.50;99.90
6903;DHT22;20232;49.408;8.702;2023-05-07T19:13:51;14.50;99.90
6903;DHT22;20232;49.408;8.702;2023-05-07T19:16:17;14.60;99.90
6903;DHT22;20232;49.408;8.702;2023-05-07T19:18:42;14.50;99.90
6903;DHT22;20232;49.408;8.702;2023-05-07T19:21:08;14.60;99.90
6903;DHT22;20232;49.408;8.702;2023-05-07T19:23:34;14.50;99.90
6903;DHT22;20232;49.408;8.702;2023-05-07T19:26:07;14.50;99.90
6903;DHT22;20232;49.408;8.702;2023-05-07T19:28:33;14.60;99.90
6903;DHT22;20232;49.408;8.702;2023-05-07T19:30:59;14.60;99.90
6903;DHT22;20232;49.408;8.702;2023-05-07T19:33:24;14.70;99.90
6903;DHT22;20232;49.408;8.702;2023-05-07T19:35:50;14.70;99.90
6903;DHT22;20232;49.408;8.702;2023-05-07T19:38:18;14.70;99.90
6903;DHT22;20232;49.408;8.702;2023-05-07T19:40:44;14.70;99.90
6903;DHT22;20232;49.408;8.702;2023-05-07T19:43:09;14.70;99.90
6903;DHT22;20232;49.408;8.702;2023-05-07T19:45:35;14.70;99.90
6903;DHT22;20232;49.408;8.702;2023-05-07T19:48:01;14.70;99.90
6903;DHT22;20232;49.408;8.702;2023-05-07T19:50:27;14.60;99.90
6903;DHT22;20232;49.408;8.702;2023-05-07T19:52:53;14.50;99.90
6903;DHT22;20232;49.408;8.702;2023-05-07T19:55:18;14.60;99.90
6903;DHT22;20232;49.408;8.702;2023-05-07T19:57:44;14.50;99.90
6903;DHT22;20232;49.408;8.702;2023-05-07T20:00:14;14.50;99.90
6903;DHT22;20232;49.408;8.702;2023-05-07T20:02:40;14.60;99.90
6903;DHT22;20232;49.408;8.702;2023-05-07T20:05:05;14.50;99.90
6903;DHT22;20232;49.408;8.702;2023-05-07T20:07:31;14.50;99.90
6903;DHT22;20232;49.408;8.702;2023-05-07T20:09:57;14.50;99.90
6903;DHT22;20232;49.408;8.702;2023-05-07T20:12:22;14.50;99.90